sensor_id;sensor_type;location;lat;lon;timestamp;P1;durP1;ratioP1;P2;durP2;ratioP2
58528;SDS011;44322;52.968;5.816;2022-11-23T00:01:21;16.60;;;10.37;;
58528;SDS011;44322;52.968;5.816;2022-11-23T00:03:53;14.60;;;9.85;;
58528;SDS011;44322;52.968;5.816;2022-11-23T00:06:22;15.00;;;8.95;;
58528;SDS011;44322;52.968;5.816;2022-11-23T00:08:50;14.68;;;9.45;;
58528;SDS011;44322;52.968;5.816;2022-11-23T00:11:17;14.88;;;9.40;;
58528;SDS011;44322;52.968;5.816;2022-11-23T00:13:44;12.40;;;9.10;;
58528;SDS011;44322;52.968;5.816;2022-11-23T00:16:16;13.88;;;9.45;;
58528;SDS011;44322;52.968;5.816;2022-11-23T00:18:44;14.85;;;9.68;;
58528;SDS011;44322;52.968;5.816;2022-11-23T00:21:12;16.63;;;10.23;;
58528;SDS011;44322;52.968;5.816;2022-11-23T00:23:43;14.05;;;9.90;;
58528;SDS011;44322;52.968;5.816;2022-11-23T00:26:10;14.30;;;9.53;;
58528;SDS011;44322;52.968;5.816;2022-11-23T00:28:37;18.60;;;10.77;;
58528;SDS011;44322;52.968;5.816;2022-11-23T00:31:05;16.25;;;9.32;;
58528;SDS011;44322;52.968;5.816;2022-11-23T00:33:38;17.33;;;10.23;;
58528;SDS011;44322;52.968;5.816;2022-11-23T00:36:06;13.60;;;9.27;;
58528;SDS011;44322;52.968;5.816;2022-11-23T00:38:39;17.75;;;9.98;;
58528;SDS011;44322;52.968;5.816;2022-11-23T00:41:08;15.35;;;9.32;;
58528;SDS011;44322;52.968;5.816;2022-11-23T00:43:36;17.02;;;10.18;;
58528;SDS011;44322;52.968;5.816;2022-11-23T00:46:19;17.38;;;10.45;;
58528;SDS011;44322;52.968;5.816;2022-11-23T00:48:51;14.43;;;9.73;;
58528;SDS011;44322;52.968;5.816;2022-11-23T00:53:46;16.85;;;9.95;;
58528;SDS011;44322;52.968;5.816;2022-11-23T00:56:14;16.83;;;9.77;;
58528;SDS011;44322;52.968;5.816;2022-11-23T00:58:41;15.57;;;10.48;;
58528;SDS011;44322;52.968;5.816;2022-11-23T01:01:11;17.45;;;10.48;;
58528;SDS011;44322;52.968;5.816;2022-11-23T01:03:41;17.40;;;10.57;;
58528;SDS011;44322;52.968;5.816;2022-11-23T01:06:10;18.88;;;10.48;;
58528;SDS011;44322;52.968;5.816;2022-11-23T01:08:47;19.85;;;10.95;;
58528;SDS011;44322;52.968;5.816;2022-11-23T01:11:24;15.60;;;9.85;;
58528;SDS011;44322;52.968;5.816;2022-11-23T01:13:52;17.90;;;10.45;;
58528;SDS011;44322;52.968;5.816;2022-11-23T01:16:22;16.77;;;11.20;;
58528;SDS011;44322;52.968;5.816;2022-11-23T01:18:53;17.88;;;11.57;;
58528;SDS011;44322;52.968;5.816;2022-11-23T01:21:21;18.73;;;11.75;;
58528;SDS011;44322;52.968;5.816;2022-11-23T01:23:49;19.15;;;12.13;;
58528;SDS011;44322;52.968;5.816;2022-11-23T01:26:15;18.52;;;11.50;;
58528;SDS011;44322;52.968;5.816;2022-11-23T01:28:42;20.58;;;12.63;;
58528;SDS011;44322;52.968;5.816;2022-11-23T01:31:09;22.17;;;12.95;;
58528;SDS011;44322;52.968;5.816;2022-11-23T01:33:37;18.85;;;11.52;;
58528;SDS011;44322;52.968;5.816;2022-11-23T01:36:07;21.30;;;11.80;;
58528;SDS011;44322;52.968;5.816;2022-11-23T01:38:37;23.17;;;12.93;;
58528;SDS011;44322;52.968;5.816;2022-11-23T01:41:07;19.92;;;12.23;;
58528;SDS011;44322;52.968;5.816;2022-11-23T01:43:35;21.23;;;13.25;;
58528;SDS011;44322;52.968;5.816;2022-11-23T01:46:02;22.40;;;13.48;;
58528;SDS011;44322;52.968;5.816;2022-11-23T01:48:33;25.10;;;13.77;;
58528;SDS011;44322;52.968;5.816;2022-11-23T01:51:03;19.75;;;13.07;;
58528;SDS011;44322;52.968;5.816;2022-11-23T01:53:34;25.25;;;14.10;;
58528;SDS011;44322;52.968;5.816;2022-11-23T01:56:02;23.52;;;13.18;;
58528;SDS011;44322;52.968;5.816;2022-11-23T01:58:31;25.33;;;15.20;;
58528;SDS011;44322;52.968;5.816;2022-11-23T02:01:02;25.08;;;15.18;;
58528;SDS011;44322;52.968;5.816;2022-11-23T02:03:29;23.67;;;14.05;;
58528;SDS011;44322;52.968;5.816;2022-11-23T02:06:01;26.42;;;14.50;;
58528;SDS011;44322;52.968;5.816;2022-11-23T02:08:30;26.15;;;15.32;;
58528;SDS011;44322;52.968;5.816;2022-11-23T02:10:56;31.38;;;16.05;;
58528;SDS011;44322;52.968;5.816;2022-11-23T02:13:24;26.00;;;14.48;;
58528;SDS011;44322;52.968;5.816;2022-11-23T02:15:53;28.33;;;16.15;;
58528;SDS011;44322;52.968;5.816;2022-11-23T02:18:22;26.90;;;13.55;;
58528;SDS011;44322;52.968;5.816;2022-11-23T02:20:50;28.83;;;17.00;;
58528;SDS011;44322;52.968;5.816;2022-11-23T02:26:15;29.42;;;15.85;;
58528;SDS011;44322;52.968;5.816;2022-11-23T02:28:49;30.13;;;17.67;;
58528;SDS011;44322;52.968;5.816;2022-11-23T02:31:35;32.60;;;17.50;;
58528;SDS011;44322;52.968;5.816;2022-11-23T02:34:01;32.40;;;17.40;;
58528;SDS011;44322;52.968;5.816;2022-11-23T02:36:35;33.33;;;18.48;;
58528;SDS011;44322;52.968;5.816;2022-11-23T02:41:36;34.30;;;18.77;;
58528;SDS011;44322;52.968;5.816;2022-11-23T02:44:30;32.95;;;17.85;;
58528;SDS011;44322;52.968;5.816;2022-11-23T02:47:09;33.40;;;18.67;;
58528;SDS011;44322;52.968;5.816;2022-11-23T02:49:38;30.40;;;18.17;;
58528;SDS011;44322;52.968;5.816;2022-11-23T02:52:05;33.22;;;20.33;;
58528;SDS011;44322;52.968;5.816;2022-11-23T02:54:33;38.53;;;19.03;;
58528;SDS011;44322;52.968;5.816;2022-11-23T02:56:59;37.28;;;20.15;;
58528;SDS011;44322;52.968;5.816;2022-11-23T02:59:26;36.35;;;19.40;;
58528;SDS011;44322;52.968;5.816;2022-11-23T03:01:53;39.57;;;20.00;;
58528;SDS011;44322;52.968;5.816;2022-11-23T03:04:20;38.72;;;19.40;;
58528;SDS011;44322;52.968;5.816;2022-11-23T03:06:46;36.97;;;20.08;;
58528;SDS011;44322;52.968;5.816;2022-11-23T03:09:13;35.70;;;19.75;;
58528;SDS011;44322;52.968;5.816;2022-11-23T03:11:40;32.10;;;19.08;;
58528;SDS011;44322;52.968;5.816;2022-11-23T03:14:07;36.88;;;21.77;;
58528;SDS011;44322;52.968;5.816;2022-11-23T03:16:42;38.65;;;20.95;;
58528;SDS011;44322;52.968;5.816;2022-11-23T03:19:08;36.20;;;20.70;;
58528;SDS011;44322;52.968;5.816;2022-11-23T03:21:38;41.97;;;20.88;;
58528;SDS011;44322;52.968;5.816;2022-11-23T03:24:06;36.17;;;20.65;;
58528;SDS011;44322;52.968;5.816;2022-11-23T03:26:33;41.75;;;22.10;;
58528;SDS011;44322;52.968;5.816;2022-11-23T03:29:08;42.95;;;22.15;;
58528;SDS011;44322;52.968;5.816;2022-11-23T03:31:36;39.00;;;20.60;;
58528;SDS011;44322;52.968;5.816;2022-11-23T03:34:06;37.95;;;21.63;;
58528;SDS011;44322;52.968;5.816;2022-11-23T03:36:34;39.70;;;21.42;;
58528;SDS011;44322;52.968;5.816;2022-11-23T03:39:01;40.58;;;21.52;;
58528;SDS011;44322;52.968;5.816;2022-11-23T03:41:49;42.05;;;21.67;;
58528;SDS011;44322;52.968;5.816;2022-11-23T03:44:20;40.50;;;20.50;;
58528;SDS011;44322;52.968;5.816;2022-11-23T03:46:48;44.80;;;23.03;;
58528;SDS011;44322;52.968;5.816;2022-11-23T03:49:21;41.63;;;22.23;;
58528;SDS011;44322;52.968;5.816;2022-11-23T03:51:51;40.45;;;21.63;;
58528;SDS011;44322;52.968;5.816;2022-11-23T03:54:21;41.70;;;23.33;;
58528;SDS011;44322;52.968;5.816;2022-11-23T03:56:51;44.75;;;24.85;;
58528;SDS011;44322;52.968;5.816;2022-11-23T03:59:19;45.22;;;23.75;;
58528;SDS011;44322;52.968;5.816;2022-11-23T04:02:01;42.65;;;22.67;;
58528;SDS011;44322;52.968;5.816;2022-11-23T04:04:36;42.92;;;22.15;;
58528;SDS011;44322;52.968;5.816;2022-11-23T04:07:27;42.75;;;22.95;;
58528;SDS011;44322;52.968;5.816;2022-11-23T04:09:55;42.17;;;23.50;;
58528;SDS011;44322;52.968;5.816;2022-11-23T04:12:30;45.90;;;24.40;;
58528;SDS011;44322;52.968;5.816;2022-11-23T04:14:59;44.13;;;23.38;;
58528;SDS011;44322;52.968;5.816;2022-11-23T04:17:26;46.80;;;24.60;;
58528;SDS011;44322;52.968;5.816;2022-11-23T04:19:57;49.38;;;25.67;;
58528;SDS011;44322;52.968;5.816;2022-11-23T04:22:26;45.05;;;24.67;;
58528;SDS011;44322;52.968;5.816;2022-11-23T04:24:52;44.90;;;24.77;;
58528;SDS011;44322;52.968;5.816;2022-11-23T04:29:46;49.13;;;25.23;;
58528;SDS011;44322;52.968;5.816;2022-11-23T04:32:12;47.08;;;24.15;;
58528;SDS011;44322;52.968;5.816;2022-11-23T04:34:39;47.42;;;23.83;;
58528;SDS011;44322;52.968;5.816;2022-11-23T04:37:07;47.65;;;23.70;;
58528;SDS011;44322;52.968;5.816;2022-11-23T04:39:37;46.38;;;24.55;;
58528;SDS011;44322;52.968;5.816;2022-11-23T04:42:16;44.10;;;24.88;;
58528;SDS011;44322;52.968;5.816;2022-11-23T04:44:52;42.97;;;24.92;;
58528;SDS011;44322;52.968;5.816;2022-11-23T04:47:19;46.33;;;24.67;;
58528;SDS011;44322;52.968;5.816;2022-11-23T04:49:47;49.80;;;25.02;;
58528;SDS011;44322;52.968;5.816;2022-11-23T04:52:14;44.70;;;24.67;;
58528;SDS011;44322;52.968;5.816;2022-11-23T04:54:44;44.47;;;24.42;;
58528;SDS011;44322;52.968;5.816;2022-11-23T04:57:14;48.00;;;23.95;;
58528;SDS011;44322;52.968;5.816;2022-11-23T04:59:42;42.40;;;24.52;;
58528;SDS011;44322;52.968;5.816;2022-11-23T05:02:08;46.40;;;22.02;;
58528;SDS011;44322;52.968;5.816;2022-11-23T05:04:56;45.50;;;22.92;;
58528;SDS011;44322;52.968;5.816;2022-11-23T05:07:29;48.40;;;25.35;;
58528;SDS011;44322;52.968;5.816;2022-11-23T05:10:00;45.65;;;22.02;;
58528;SDS011;44322;52.968;5.816;2022-11-23T05:12:27;49.50;;;24.10;;
58528;SDS011;44322;52.968;5.816;2022-11-23T05:14:54;49.80;;;24.60;;
58528;SDS011;44322;52.968;5.816;2022-11-23T05:17:26;51.10;;;25.58;;
58528;SDS011;44322;52.968;5.816;2022-11-23T05:19:53;51.72;;;24.88;;
58528;SDS011;44322;52.968;5.816;2022-11-23T05:22:21;49.30;;;25.45;;
58528;SDS011;44322;52.968;5.816;2022-11-23T05:24:47;45.42;;;24.05;;
58528;SDS011;44322;52.968;5.816;2022-11-23T05:27:17;49.15;;;25.77;;
58528;SDS011;44322;52.968;5.816;2022-11-23T05:29:43;46.45;;;23.88;;
58528;SDS011;44322;52.968;5.816;2022-11-23T05:32:10;51.00;;;24.63;;
58528;SDS011;44322;52.968;5.816;2022-11-23T05:34:37;44.35;;;24.70;;
58528;SDS011;44322;52.968;5.816;2022-11-23T05:37:04;41.40;;;22.42;;
58528;SDS011;44322;52.968;5.816;2022-11-23T05:39:30;49.60;;;24.08;;
58528;SDS011;44322;52.968;5.816;2022-11-23T05:41:57;44.57;;;23.30;;
58528;SDS011;44322;52.968;5.816;2022-11-23T05:44:36;42.80;;;23.05;;
58528;SDS011;44322;52.968;5.816;2022-11-23T05:47:05;44.85;;;21.67;;
58528;SDS011;44322;52.968;5.816;2022-11-23T05:49:33;45.60;;;21.60;;
58528;SDS011;44322;52.968;5.816;2022-11-23T05:52:01;41.65;;;22.25;;
58528;SDS011;44322;52.968;5.816;2022-11-23T05:54:30;43.38;;;22.05;;
58528;SDS011;44322;52.968;5.816;2022-11-23T05:57:08;42.40;;;21.63;;
58528;SDS011;44322;52.968;5.816;2022-11-23T05:59:37;38.65;;;20.52;;
58528;SDS011;44322;52.968;5.816;2022-11-23T06:02:04;38.25;;;20.10;;
58528;SDS011;44322;52.968;5.816;2022-11-23T06:04:32;39.22;;;20.90;;
58528;SDS011;44322;52.968;5.816;2022-11-23T06:06:58;37.35;;;20.35;;
58528;SDS011;44322;52.968;5.816;2022-11-23T06:09:29;35.05;;;18.25;;
58528;SDS011;44322;52.968;5.816;2022-11-23T06:17:30;32.25;;;16.90;;
58528;SDS011;44322;52.968;5.816;2022-11-23T06:29:07;34.55;;;16.52;;
58528;SDS011;44322;52.968;5.816;2022-11-23T06:54:48;31.35;;;14.10;;
58528;SDS011;44322;52.968;5.816;2022-11-23T06:57:26;25.90;;;13.27;;
58528;SDS011;44322;52.968;5.816;2022-11-23T07:00:01;27.00;;;13.98;;
58528;SDS011;44322;52.968;5.816;2022-11-23T07:02:39;28.40;;;13.60;;
58528;SDS011;44322;52.968;5.816;2022-11-23T07:05:13;21.95;;;12.27;;
58528;SDS011;44322;52.968;5.816;2022-11-23T07:07:43;21.95;;;12.50;;
58528;SDS011;44322;52.968;5.816;2022-11-23T07:10:23;21.52;;;10.65;;
58528;SDS011;44322;52.968;5.816;2022-11-23T07:13:05;24.80;;;13.70;;
58528;SDS011;44322;52.968;5.816;2022-11-23T07:15:40;22.13;;;12.73;;
58528;SDS011;44322;52.968;5.816;2022-11-23T07:18:21;23.08;;;12.70;;
58528;SDS011;44322;52.968;5.816;2022-11-23T07:20:57;24.55;;;12.80;;
58528;SDS011;44322;52.968;5.816;2022-11-23T07:23:27;23.77;;;13.88;;
58528;SDS011;44322;52.968;5.816;2022-11-23T07:26:03;25.75;;;12.38;;
58528;SDS011;44322;52.968;5.816;2022-11-23T07:28:35;21.80;;;12.75;;
58528;SDS011;44322;52.968;5.816;2022-11-23T07:31:04;24.20;;;13.70;;
58528;SDS011;44322;52.968;5.816;2022-11-23T07:33:45;22.33;;;12.35;;
58528;SDS011;44322;52.968;5.816;2022-11-23T07:36:26;22.45;;;11.13;;
58528;SDS011;44322;52.968;5.816;2022-11-23T07:38:54;24.83;;;12.77;;
58528;SDS011;44322;52.968;5.816;2022-11-23T07:41:23;24.20;;;12.68;;
58528;SDS011;44322;52.968;5.816;2022-11-23T07:44:42;20.60;;;12.13;;
58528;SDS011;44322;52.968;5.816;2022-11-23T07:47:12;23.73;;;10.90;;
58528;SDS011;44322;52.968;5.816;2022-11-23T07:49:38;25.92;;;12.55;;
58528;SDS011;44322;52.968;5.816;2022-11-23T07:52:05;20.38;;;9.93;;
58528;SDS011;44322;52.968;5.816;2022-11-23T07:54:31;18.10;;;10.80;;
58528;SDS011;44322;52.968;5.816;2022-11-23T07:56:56;20.40;;;10.40;;
58528;SDS011;44322;52.968;5.816;2022-11-23T07:59:22;21.25;;;11.43;;
58528;SDS011;44322;52.968;5.816;2022-11-23T08:01:48;20.25;;;11.35;;
58528;SDS011;44322;52.968;5.816;2022-11-23T08:04:14;22.38;;;11.00;;
58528;SDS011;44322;52.968;5.816;2022-11-23T08:06:40;21.80;;;11.63;;
58528;SDS011;44322;52.968;5.816;2022-11-23T08:09:06;25.13;;;12.20;;
58528;SDS011;44322;52.968;5.816;2022-11-23T08:11:32;24.00;;;11.90;;
58528;SDS011;44322;52.968;5.816;2022-11-23T08:13:58;24.90;;;11.80;;
58528;SDS011;44322;52.968;5.816;2022-11-23T08:16:24;24.17;;;11.77;;
58528;SDS011;44322;52.968;5.816;2022-11-23T08:18:50;26.27;;;12.40;;
58528;SDS011;44322;52.968;5.816;2022-11-23T08:21:16;26.17;;;13.23;;
58528;SDS011;44322;52.968;5.816;2022-11-23T08:23:42;26.48;;;13.82;;
58528;SDS011;44322;52.968;5.816;2022-11-23T08:26:07;26.13;;;12.82;;
58528;SDS011;44322;52.968;5.816;2022-11-23T08:28:33;28.02;;;13.55;;
58528;SDS011;44322;52.968;5.816;2022-11-23T08:31:04;22.75;;;12.20;;
58528;SDS011;44322;52.968;5.816;2022-11-23T08:33:35;26.58;;;11.73;;
58528;SDS011;44322;52.968;5.816;2022-11-23T08:36:02;24.02;;;12.50;;
58528;SDS011;44322;52.968;5.816;2022-11-23T08:38:30;24.85;;;11.35;;
58528;SDS011;44322;52.968;5.816;2022-11-23T08:40:59;21.77;;;11.05;;
58528;SDS011;44322;52.968;5.816;2022-11-23T08:43:29;20.02;;;10.93;;
58528;SDS011;44322;52.968;5.816;2022-11-23T08:45:56;19.75;;;10.35;;
58528;SDS011;44322;52.968;5.816;2022-11-23T08:48:25;23.10;;;9.25;;
58528;SDS011;44322;52.968;5.816;2022-11-23T08:50:51;19.38;;;9.55;;
58528;SDS011;44322;52.968;5.816;2022-11-23T08:53:21;22.48;;;9.30;;
58528;SDS011;44322;52.968;5.816;2022-11-23T08:55:47;20.70;;;9.10;;
58528;SDS011;44322;52.968;5.816;2022-11-23T08:58:13;16.70;;;8.23;;
58528;SDS011;44322;52.968;5.816;2022-11-23T09:00:42;17.25;;;8.90;;
58528;SDS011;44322;52.968;5.816;2022-11-23T09:05:37;18.88;;;8.15;;
58528;SDS011;44322;52.968;5.816;2022-11-23T09:08:04;16.15;;;7.93;;
58528;SDS011;44322;52.968;5.816;2022-11-23T09:10:30;21.35;;;9.07;;
58528;SDS011;44322;52.968;5.816;2022-11-23T09:12:57;18.00;;;7.88;;
58528;SDS011;44322;52.968;5.816;2022-11-23T09:17:49;16.75;;;7.68;;
58528;SDS011;44322;52.968;5.816;2022-11-23T09:20:16;15.23;;;7.75;;
58528;SDS011;44322;52.968;5.816;2022-11-23T09:22:42;17.65;;;8.48;;
58528;SDS011;44322;52.968;5.816;2022-11-23T09:25:08;17.80;;;7.82;;
58528;SDS011;44322;52.968;5.816;2022-11-23T09:27:34;16.50;;;7.75;;
58528;SDS011;44322;52.968;5.816;2022-11-23T09:30:00;16.80;;;7.63;;
58528;SDS011;44322;52.968;5.816;2022-11-23T09:32:27;18.05;;;6.78;;
58528;SDS011;44322;52.968;5.816;2022-11-23T09:34:53;16.48;;;7.72;;
58528;SDS011;44322;52.968;5.816;2022-11-23T09:37:20;20.08;;;7.72;;
58528;SDS011;44322;52.968;5.816;2022-11-23T09:39:47;18.98;;;7.15;;
58528;SDS011;44322;52.968;5.816;2022-11-23T09:43:01;15.13;;;6.43;;
58528;SDS011;44322;52.968;5.816;2022-11-23T09:48:33;16.10;;;6.35;;
58528;SDS011;44322;52.968;5.816;2022-11-23T09:51:20;14.38;;;5.93;;
58528;SDS011;44322;52.968;5.816;2022-11-23T09:56:44;19.50;;;5.90;;
58528;SDS011;44322;52.968;5.816;2022-11-23T09:59:38;19.70;;;5.90;;
58528;SDS011;44322;52.968;5.816;2022-11-23T10:02:04;18.00;;;5.25;;
58528;SDS011;44322;52.968;5.816;2022-11-23T10:04:38;14.77;;;5.38;;
58528;SDS011;44322;52.968;5.816;2022-11-23T10:07:21;15.05;;;5.38;;
58528;SDS011;44322;52.968;5.816;2022-11-23T10:09:58;16.67;;;5.47;;
58528;SDS011;44322;52.968;5.816;2022-11-23T10:15:30;11.30;;;4.60;;
58528;SDS011;44322;52.968;5.816;2022-11-23T10:20:42;12.90;;;4.32;;
58528;SDS011;44322;52.968;5.816;2022-11-23T10:26:22;18.10;;;4.78;;
58528;SDS011;44322;52.968;5.816;2022-11-23T10:29:15;11.20;;;4.57;;
58528;SDS011;44322;52.968;5.816;2022-11-23T10:31:48;14.32;;;4.53;;
58528;SDS011;44322;52.968;5.816;2022-11-23T10:34:15;17.58;;;4.22;;
58528;SDS011;44322;52.968;5.816;2022-11-23T10:36:47;13.32;;;3.72;;
58528;SDS011;44322;52.968;5.816;2022-11-23T10:41:45;11.75;;;3.50;;
58528;SDS011;44322;52.968;5.816;2022-11-23T10:44:21;10.55;;;4.07;;
58528;SDS011;44322;52.968;5.816;2022-11-23T10:47:05;12.35;;;3.53;;
58528;SDS011;44322;52.968;5.816;2022-11-23T10:49:32;15.25;;;4.60;;
58528;SDS011;44322;52.968;5.816;2022-11-23T10:52:03;13.18;;;3.92;;
58528;SDS011;44322;52.968;5.816;2022-11-23T10:54:35;12.43;;;4.15;;
58528;SDS011;44322;52.968;5.816;2022-11-23T11:07:19;5.38;;;2.70;;
58528;SDS011;44322;52.968;5.816;2022-11-23T11:09:57;6.38;;;2.17;;
58528;SDS011;44322;52.968;5.816;2022-11-23T11:12:25;4.45;;;2.33;;
58528;SDS011;44322;52.968;5.816;2022-11-23T11:14:54;6.18;;;1.98;;
58528;SDS011;44322;52.968;5.816;2022-11-23T11:17:46;6.00;;;2.03;;
58528;SDS011;44322;52.968;5.816;2022-11-23T11:22:56;4.18;;;2.10;;
58528;SDS011;44322;52.968;5.816;2022-11-23T11:25:40;5.10;;;1.80;;
58528;SDS011;44322;52.968;5.816;2022-11-23T11:36:37;4.65;;;1.77;;
58528;SDS011;44322;52.968;5.816;2022-11-23T11:39:14;5.88;;;2.10;;
58528;SDS011;44322;52.968;5.816;2022-11-23T11:41:44;3.80;;;2.17;;
58528;SDS011;44322;52.968;5.816;2022-11-23T11:44:18;4.63;;;2.10;;
58528;SDS011;44322;52.968;5.816;2022-11-23T11:46:52;3.38;;;1.75;;
58528;SDS011;44322;52.968;5.816;2022-11-23T11:49:27;6.68;;;2.10;;
58528;SDS011;44322;52.968;5.816;2022-11-23T11:54:49;7.13;;;2.15;;
58528;SDS011;44322;52.968;5.816;2022-11-23T11:57:25;9.43;;;2.55;;
58528;SDS011;44322;52.968;5.816;2022-11-23T11:59:58;7.28;;;2.30;;
58528;SDS011;44322;52.968;5.816;2022-11-23T12:02:27;5.72;;;1.90;;
58528;SDS011;44322;52.968;5.816;2022-11-23T12:07:43;6.80;;;2.33;;
58528;SDS011;44322;52.968;5.816;2022-11-23T12:10:25;4.47;;;2.30;;
58528;SDS011;44322;52.968;5.816;2022-11-23T12:12:57;9.88;;;2.00;;
58528;SDS011;44322;52.968;5.816;2022-11-23T12:15:25;8.48;;;2.25;;
58528;SDS011;44322;52.968;5.816;2022-11-23T12:18:01;5.55;;;2.08;;
58528;SDS011;44322;52.968;5.816;2022-11-23T12:20:56;28.88;;;3.00;;
58528;SDS011;44322;52.968;5.816;2022-11-23T12:29:15;4.40;;;1.80;;
58528;SDS011;44322;52.968;5.816;2022-11-23T12:34:45;6.95;;;1.80;;
58528;SDS011;44322;52.968;5.816;2022-11-23T12:37:22;5.40;;;2.25;;
58528;SDS011;44322;52.968;5.816;2022-11-23T12:40:20;4.13;;;1.70;;
58528;SDS011;44322;52.968;5.816;2022-11-23T12:51:06;6.00;;;2.25;;
58528;SDS011;44322;52.968;5.816;2022-11-23T12:56:31;4.28;;;1.80;;
58528;SDS011;44322;52.968;5.816;2022-11-23T12:59:08;6.85;;;1.90;;
58528;SDS011;44322;52.968;5.816;2022-11-23T13:12:25;4.13;;;1.80;;
58528;SDS011;44322;52.968;5.816;2022-11-23T13:15:27;6.03;;;1.98;;
58528;SDS011;44322;52.968;5.816;2022-11-23T13:23:41;6.00;;;1.80;;
58528;SDS011;44322;52.968;5.816;2022-11-23T13:26:17;7.82;;;1.92;;
58528;SDS011;44322;52.968;5.816;2022-11-23T13:28:44;6.70;;;1.70;;
58528;SDS011;44322;52.968;5.816;2022-11-23T13:33:40;4.45;;;1.90;;
58528;SDS011;44322;52.968;5.816;2022-11-23T13:36:11;5.45;;;1.85;;
58528;SDS011;44322;52.968;5.816;2022-11-23T13:38:57;6.60;;;2.03;;
58528;SDS011;44322;52.968;5.816;2022-11-23T13:44:11;3.75;;;1.73;;
58528;SDS011;44322;52.968;5.816;2022-11-23T13:46:43;4.20;;;1.50;;
58528;SDS011;44322;52.968;5.816;2022-11-23T13:49:30;4.63;;;1.65;;
58528;SDS011;44322;52.968;5.816;2022-11-23T13:52:24;4.60;;;1.63;;
58528;SDS011;44322;52.968;5.816;2022-11-23T13:55:02;6.43;;;1.60;;
58528;SDS011;44322;52.968;5.816;2022-11-23T13:57:35;5.57;;;1.90;;
58528;SDS011;44322;52.968;5.816;2022-11-23T14:04:24;5.68;;;1.80;;
58528;SDS011;44322;52.968;5.816;2022-11-23T14:06:55;4.10;;;1.40;;
58528;SDS011;44322;52.968;5.816;2022-11-23T14:22:22;4.90;;;1.60;;
58528;SDS011;44322;52.968;5.816;2022-11-23T14:24:54;5.35;;;1.50;;
58528;SDS011;44322;52.968;5.816;2022-11-23T14:27:41;5.00;;;1.70;;
58528;SDS011;44322;52.968;5.816;2022-11-23T14:35:19;3.30;;;1.30;;
58528;SDS011;44322;52.968;5.816;2022-11-23T14:43:12;3.78;;;1.52;;
58528;SDS011;44322;52.968;5.816;2022-11-23T14:45:43;3.80;;;1.40;;
58528;SDS011;44322;52.968;5.816;2022-11-23T14:48:21;2.88;;;1.30;;
58528;SDS011;44322;52.968;5.816;2022-11-23T14:50:58;3.70;;;1.30;;
58528;SDS011;44322;52.968;5.816;2022-11-23T14:53:28;3.60;;;1.27;;
58528;SDS011;44322;52.968;5.816;2022-11-23T14:55:54;3.28;;;1.17;;
58528;SDS011;44322;52.968;5.816;2022-11-23T14:58:20;3.42;;;1.42;;
